Time;durP1;ratioP1;P1;durP2;ratioP2;P2;SDS_P1;SDS_P2;PMS_P1;PMS_P2;Temp;Humidity;BMP_temperature;BMP_pressure;BME280_temperature;BME280_humidity;BME280_pressure;Samples;Min_cycle;Max_cycle;Signal;HPM_P1;HPM_P2
2021/11/11 00:00:15;;;;;;;2.62;1.85;;;4.40;99.90;;;;;;4407194;32;20094;-66
2021/11/11 00:02:42;;;;;;;0.90;0.90;;;4.30;99.90;;;;;;4407519;32;20070;-66
2021/11/11 00:05:09;;;;;;;0.77;0.77;;;4.30;99.90;;;;;;4423572;32;20073;-66
2021/11/11 00:07:35;;;;;;;2.58;1.45;;;4.10;99.90;;;;;;4430532;32;20073;-67
2021/11/11 00:10:02;;;;;;;2.83;1.83;;;4.20;99.90;;;;;;4411161;32;20057;-66
2021/11/11 00:12:31;;;;;;;5.25;1.20;;;4.30;99.90;;;;;;4402852;32;20492;-67
2021/11/11 00:14:57;;;;;;;0.98;0.93;;;4.30;99.90;;;;;;4410193;32;20097;-67
2021/11/11 00:17:23;;;;;;;4.45;1.98;;;4.30;99.90;;;;;;4418582;32;20077;-67
2021/11/11 00:19:48;;;;;;;0.77;0.77;;;4.30;99.90;;;;;;4416226;32;20126;-67
2021/11/11 00:22:14;;;;;;;0.70;0.70;;;4.30;99.90;;;;;;4425891;32;20069;-67
2021/11/11 00:24:39;;;;;;;2.03;1.12;;;4.30;99.90;;;;;;4418348;32;20089;-67
2021/11/11 00:27:05;;;;;;;4.62;2.55;;;4.20;99.90;;;;;;4420288;32;20516;-67
2021/11/11 00:29:31;;;;;;;1.05;0.80;;;4.10;99.90;;;;;;4420365;32;20177;-67
2021/11/11 00:31:56;;;;;;;1.20;1.12;;;4.00;99.90;;;;;;4418824;32;20140;-67
2021/11/11 00:34:22;;;;;;;2.72;1.37;;;4.00;99.90;;;;;;4419138;32;20185;-67
2021/11/11 00:36:47;;;;;;;2.00;1.42;;;4.00;99.90;;;;;;4415447;32;20515;-67
2021/11/11 00:39:13;;;;;;;1.17;1.08;;;3.90;99.90;;;;;;4420480;32;20132;-67
2021/11/11 00:41:38;;;;;;;3.78;1.85;;;3.90;99.90;;;;;;4416344;32;20069;-67
2021/11/11 00:44:04;;;;;;;1.87;1.12;;;3.90;99.90;;;;;;4410823;32;20073;-67
2021/11/11 00:46:30;;;;;;;2.37;1.58;;;3.90;99.90;;;;;;4421937;32;20074;-67
2021/11/11 00:48:56;;;;;;;0.68;0.65;;;4.00;99.90;;;;;;4421436;32;20073;-67
2021/11/11 00:51:21;;;;;;;1.00;0.93;;;4.00;99.90;;;;;;4405355;32;20066;-67
2021/11/11 00:53:47;;;;;;;1.17;1.08;;;3.90;99.90;;;;;;4415878;32;20169;-67
2021/11/11 00:58:40;;;;;;;1.35;1.20;;;3.70;99.90;;;;;;4416094;32;20062;-67
2021/11/11 01:01:06;;;;;;;1.70;1.60;;;3.80;99.90;;;;;;4414876;32;20471;-67
2021/11/11 01:03:40;;;;;;;0.62;0.62;;;3.80;99.90;;;;;;4413758;32;20089;-67
2021/11/11 01:06:07;;;;;;;0.98;0.98;;;3.90;99.90;;;;;;4401284;32;20457;-67
2021/11/11 01:08:33;;;;;;;0.50;0.50;;;3.90;99.90;;;;;;4422018;32;20065;-67
2021/11/11 01:11:00;;;;;;;1.15;0.82;;;3.80;99.90;;;;;;4407647;32;20089;-67
2021/11/11 01:13:26;;;;;;;0.80;0.80;;;3.70;99.90;;;;;;4400565;32;20177;-67
2021/11/11 01:15:51;;;;;;;1.20;1.10;;;3.70;99.90;;;;;;4414331;32;20058;-67
2021/11/11 01:18:17;;;;;;;0.52;0.52;;;3.80;99.90;;;;;;4418728;32;20054;-67
2021/11/11 01:20:43;;;;;;;4.10;1.20;;;3.80;99.90;;;;;;4415277;32;20054;-67
2021/11/11 01:23:09;;;;;;;0.88;0.88;;;3.70;99.90;;;;;;4418022;32;20136;-67
2021/11/11 01:25:37;;;;;;;0.65;0.65;;;3.70;99.90;;;;;;4414701;32;20114;-67
2021/11/11 01:28:04;;;;;;;2.35;1.77;;;3.60;99.90;;;;;;4417780;32;20058;-67
2021/11/11 01:30:29;;;;;;;6.72;1.55;;;3.50;99.90;;;;;;4424703;32;20094;-67
2021/11/11 01:32:55;;;;;;;1.05;0.90;;;3.40;99.90;;;;;;4413614;32;20511;-67
2021/11/11 01:35:20;;;;;;;0.90;0.90;;;3.30;99.90;;;;;;4419299;32;20065;-67
2021/11/11 01:37:46;;;;;;;2.47;1.20;;;3.30;99.90;;;;;;4421972;32;20065;-67
2021/11/11 01:40:15;;;;;;;0.90;0.90;;;3.40;99.90;;;;;;4400849;32;20050;-67
2021/11/11 01:42:43;;;;;;;0.88;0.88;;;3.40;99.90;;;;;;4423741;32;20061;-67
2021/11/11 01:45:09;;;;;;;0.77;0.77;;;3.40;99.90;;;;;;4418187;32;20507;-67
2021/11/11 01:47:36;;;;;;;0.60;0.60;;;3.30;99.90;;;;;;4407610;32;20136;-67
2021/11/11 01:50:04;;;;;;;3.67;0.98;;;3.40;99.90;;;;;;4415714;32;20058;-67
2021/11/11 01:52:29;;;;;;;0.62;0.62;;;3.40;99.90;;;;;;4418682;32;20133;-67
2021/11/11 01:54:55;;;;;;;0.68;0.68;;;3.40;99.90;;;;;;4415078;32;20058;-67
2021/11/11 01:57:22;;;;;;;0.75;0.75;;;3.30;99.90;;;;;;4417258;32;20065;-67
2021/11/11 01:59:49;;;;;;;5.93;2.05;;;3.20;99.90;;;;;;4422259;32;20514;-67
2021/11/11 02:02:24;;;;;;;0.93;0.88;;;3.10;99.90;;;;;;4406986;32;20069;-67
2021/11/11 02:04:49;;;;;;;1.80;1.20;;;2.90;99.90;;;;;;4417553;32;20202;-67
2021/11/11 02:07:15;;;;;;;0.73;0.73;;;2.90;99.90;;;;;;4391125;32;20496;-67
2021/11/11 02:09:41;;;;;;;1.45;1.35;;;2.80;99.90;;;;;;4420084;32;20082;-67
2021/11/11 02:12:07;;;;;;;0.62;0.62;;;2.90;99.90;;;;;;4424379;32;20551;-67
2021/11/11 02:14:32;;;;;;;0.65;0.65;;;2.90;99.90;;;;;;4413090;32;20089;-67
2021/11/11 02:16:57;;;;;;;0.60;0.60;;;3.00;99.90;;;;;;4411713;32;20101;-67
2021/11/11 02:19:23;;;;;;;0.60;0.60;;;3.10;99.90;;;;;;4417976;32;20066;-67
2021/11/11 02:21:53;;;;;;;0.60;0.60;;;3.00;99.90;;;;;;4407263;32;20173;-67
2021/11/11 02:24:19;;;;;;;5.18;1.58;;;3.00;99.90;;;;;;4417791;32;20174;-67
2021/11/11 02:26:44;;;;;;;2.30;0.98;;;2.90;99.90;;;;;;4425075;32;20097;-67
2021/11/11 02:29:10;;;;;;;0.88;0.85;;;2.90;99.90;;;;;;4423588;32;20078;-67
2021/11/11 02:31:35;;;;;;;13.88;1.55;;;2.90;99.90;;;;;;4414588;32;20078;-67
2021/11/11 02:34:01;;;;;;;1.85;1.10;;;2.80;99.90;;;;;;4415409;32;20524;-68
2021/11/11 02:36:27;;;;;;;4.62;2.12;;;2.90;99.90;;;;;;4421352;32;20073;-67
2021/11/11 02:38:54;;;;;;;0.75;0.75;;;2.90;99.90;;;;;;4416972;32;20073;-67
2021/11/11 02:41:20;;;;;;;0.85;0.85;;;2.90;99.90;;;;;;4400079;32;20516;-67
2021/11/11 02:43:46;;;;;;;0.52;0.52;;;2.70;99.90;;;;;;4416922;32;20077;-67
2021/11/11 02:46:12;;;;;;;5.70;1.87;;;2.60;99.90;;;;;;4416021;32;20062;-67
2021/11/11 02:48:38;;;;;;;1.35;1.08;;;2.60;99.90;;;;;;4410886;32;21176;-67
2021/11/11 02:51:03;;;;;;;0.62;0.60;;;2.60;99.90;;;;;;4417818;32;20110;-67
2021/11/11 02:53:29;;;;;;;2.33;1.42;;;2.50;99.90;;;;;;4411937;32;20078;-67
2021/11/11 02:55:56;;;;;;;0.88;0.85;;;2.50;99.90;;;;;;4419971;32;20161;-67
2021/11/11 02:58:23;;;;;;;0.80;0.80;;;2.60;99.90;;;;;;4401143;32;20425;-67
2021/11/11 03:00:55;;;;;;;2.40;1.40;;;2.80;99.90;;;;;;4414092;32;20125;-67
2021/11/11 03:03:22;;;;;;;0.62;0.57;;;3.00;99.90;;;;;;4420546;32;20056;-67
2021/11/11 03:05:48;;;;;;;0.43;0.43;;;3.00;99.90;;;;;;4424325;32;20076;-67
2021/11/11 03:08:14;;;;;;;0.47;0.47;;;2.80;99.90;;;;;;4420402;32;20078;-67
2021/11/11 03:10:42;;;;;;;0.77;0.77;;;2.70;99.90;;;;;;4417148;32;20069;-67
2021/11/11 03:13:09;;;;;;;1.17;0.70;;;2.60;99.90;;;;;;4423175;32;20121;-67
2021/11/11 03:15:35;;;;;;;0.43;0.43;;;2.60;99.90;;;;;;4403951;32;20078;-67
2021/11/11 03:18:01;;;;;;;1.27;1.17;;;2.70;99.90;;;;;;4396836;32;20433;-67
2021/11/11 03:20:27;;;;;;;1.45;1.35;;;2.70;99.90;;;;;;4415896;32;20128;-67
2021/11/11 03:22:53;;;;;;;0.85;0.85;;;2.90;99.90;;;;;;4405107;32;20065;-68
2021/11/11 03:25:22;;;;;;;0.70;0.70;;;2.80;99.90;;;;;;4413420;32;20101;-67
2021/11/11 03:27:49;;;;;;;0.98;0.88;;;3.00;99.90;;;;;;4414612;32;20113;-67
2021/11/11 03:30:18;;;;;;;2.03;1.30;;;3.10;99.90;;;;;;4419431;32;20471;-67
2021/11/11 03:32:45;;;;;;;4.85;1.20;;;3.10;99.90;;;;;;4423928;32;20065;-67
2021/11/11 03:35:12;;;;;;;1.05;0.90;;;3.10;99.90;;;;;;4419612;32;20065;-67
2021/11/11 03:37:39;;;;;;;0.70;0.70;;;3.10;99.90;;;;;;4412946;32;20074;-67
2021/11/11 03:40:09;;;;;;;1.27;1.12;;;3.20;99.90;;;;;;4410759;32;20121;-67
2021/11/11 03:42:34;;;;;;;4.90;2.12;;;3.20;99.90;;;;;;4415135;32;20070;-67
2021/11/11 03:45:00;;;;;;;1.10;0.85;;;3.00;99.90;;;;;;4415776;32;20085;-67
2021/11/11 03:47:26;;;;;;;0.52;0.52;;;2.90;99.90;;;;;;4412122;32;20077;-67
2021/11/11 03:49:52;;;;;;;2.55;1.58;;;2.70;99.90;;;;;;4416330;32;20634;-67
2021/11/11 03:52:17;;;;;;;0.80;0.80;;;2.70;99.90;;;;;;4415478;32;20073;-67
2021/11/11 03:54:43;;;;;;;0.62;0.62;;;2.80;99.90;;;;;;4412677;32;20077;-67
2021/11/11 03:57:10;;;;;;;2.87;1.98;;;2.90;99.90;;;;;;4423763;32;20073;-67
2021/11/11 03:59:37;;;;;;;0.82;0.82;;;2.80;99.90;;;;;;4415604;32;20086;-67
2021/11/11 04:02:04;;;;;;;0.50;0.50;;;2.80;99.90;;;;;;4419587;32;20575;-68
2021/11/11 04:04:30;;;;;;;0.88;0.88;;;2.70;99.90;;;;;;4410454;32;20070;-67
2021/11/11 04:06:55;;;;;;;2.78;1.67;;;2.50;99.90;;;;;;4393047;32;20316;-67
2021/11/11 04:09:21;;;;;;;1.45;1.08;;;2.50;99.90;;;;;;4425301;32;20070;-67
2021/11/11 04:11:48;;;;;;;1.73;1.12;;;2.60;99.90;;;;;;4419626;32;20074;-67
2021/11/11 04:14:15;;;;;;;1.48;1.17;;;2.50;99.90;;;;;;4418124;32;20077;-67
2021/11/11 04:16:42;;;;;;;9.95;1.50;;;2.80;99.90;;;;;;4411942;32;20181;-67
2021/11/11 04:19:08;;;;;;;1.55;0.93;;;2.70;99.90;;;;;;4411736;32;20137;-67
2021/11/11 04:21:34;;;;;;;0.50;0.50;;;2.60;99.90;;;;;;4395042;32;20162;-67
2021/11/11 04:24:00;;;;;;;1.37;1.23;;;2.70;99.90;;;;;;4411813;32;20065;-67
2021/11/11 04:26:28;;;;;;;9.63;2.62;;;2.70;99.90;;;;;;4417858;32;20070;-67
2021/11/11 04:29:00;;;;;;;0.50;0.50;;;2.60;99.90;;;;;;4423753;32;20066;-67
2021/11/11 04:31:29;;;;;;;0.65;0.65;;;2.50;99.90;;;;;;4420944;32;87481;-67
2021/11/11 04:34:00;;;;;;;0.55;0.55;;;2.40;99.90;;;;;;4417577;32;20061;-67
2021/11/11 04:37:30;;;;;;;0.70;0.70;;;2.40;99.90;;;;;;4415667;32;20534;-67
2021/11/11 04:40:39;;;;;;;2.05;1.20;;;2.60;99.90;;;;;;4399909;32;20086;-67
2021/11/11 04:45:54;;;;;;;1.20;1.10;;;2.90;99.90;;;;;;4413719;32;20173;-67
2021/11/11 04:47:28;;;;;;;3.17;1.75;;;2.80;99.90;;;;;;4406302;32;20117;-67
2021/11/11 04:50:47;;;;;;;1.35;1.20;;;2.90;99.90;;;;;;4415088;32;20054;-67
2021/11/11 04:59:55;;;;;;;2.05;1.33;;;2.90;99.90;;;;;;4397695;32;20465;-67
2021/11/11 05:01:10;;;;;;;1.60;1.33;;;3.00;99.90;;;;;;4415908;32;20073;-67
2021/11/11 05:03:37;;;;;;;0.70;0.70;;;3.10;99.90;;;;;;4407002;32;20082;-67
2021/11/11 05:06:03;;;;;;;3.55;1.50;;;3.00;99.90;;;;;;4415530;32;20070;-67
2021/11/11 05:08:29;;;;;;;1.80;1.20;;;2.80;99.90;;;;;;4425423;32;20404;-66
2021/11/11 05:10:56;;;;;;;1.30;0.95;;;2.80;99.90;;;;;;4420264;32;20471;-66
2021/11/11 05:13:22;;;;;;;0.80;0.80;;;2.80;99.90;;;;;;4423960;32;20078;-66
2021/11/11 05:15:48;;;;;;;1.05;1.00;;;2.70;99.90;;;;;;4399879;32;20053;-66
2021/11/11 05:18:14;;;;;;;0.50;0.50;;;2.80;99.90;;;;;;4424794;32;20120;-66
2021/11/11 05:20:39;;;;;;;1.70;1.45;;;2.70;99.90;;;;;;4402473;32;20506;-67
2021/11/11 05:23:05;;;;;;;1.92;1.48;;;2.70;99.90;;;;;;4402831;32;20120;-66
2021/11/11 05:25:31;;;;;;;0.70;0.70;;;2.70;99.90;;;;;;4411249;32;20078;-66
2021/11/11 05:27:57;;;;;;;0.52;0.52;;;2.70;99.90;;;;;;4420348;32;20066;-66
2021/11/11 05:30:23;;;;;;;1.42;0.98;;;2.60;99.90;;;;;;4416463;32;20587;-67
2021/11/11 05:32:49;;;;;;;1.83;1.25;;;2.50;99.90;;;;;;4416982;32;20624;-67
2021/11/11 05:35:15;;;;;;;1.35;0.95;;;2.50;99.90;;;;;;4416645;32;20405;-67
2021/11/11 05:37:44;;;;;;;0.88;0.75;;;2.40;99.90;;;;;;4417995;32;20504;-67
2021/11/11 05:40:11;;;;;;;2.47;1.33;;;2.40;99.90;;;;;;4405192;32;20125;-66
2021/11/11 05:42:38;;;;;;;0.77;0.77;;;2.30;99.90;;;;;;4422489;32;20090;-67
2021/11/11 05:45:05;;;;;;;0.90;0.90;;;2.20;99.90;;;;;;4411088;32;20425;-67
2021/11/11 05:47:31;;;;;;;1.23;1.12;;;2.20;99.90;;;;;;4401612;32;20529;-67
2021/11/11 05:49:56;;;;;;;0.73;0.73;;;2.10;99.90;;;;;;4410553;32;20061;-67
2021/11/11 05:52:22;;;;;;;1.75;1.58;;;1.90;99.90;;;;;;4414014;32;20091;-67
2021/11/11 05:54:48;;;;;;;1.75;1.42;;;2.00;99.90;;;;;;4402113;32;20425;-67
2021/11/11 05:57:14;;;;;;;2.70;1.75;;;2.10;99.90;;;;;;4418925;32;20069;-67
2021/11/11 05:59:39;;;;;;;1.20;0.98;;;2.20;99.90;;;;;;4420956;32;20073;-67
2021/11/11 06:02:07;;;;;;;2.33;1.80;;;2.20;99.90;;;;;;4405108;32;20437;-67
2021/11/11 06:04:33;;;;;;;0.98;0.98;;;2.20;99.90;;;;;;4408260;32;20061;-66
2021/11/11 06:06:58;;;;;;;0.80;0.80;;;2.10;99.90;;;;;;4408335;32;20088;-66
2021/11/11 06:09:24;;;;;;;1.70;1.40;;;2.00;99.90;;;;;;4416086;32;20425;-66
2021/11/11 06:11:50;;;;;;;1.27;1.12;;;2.00;99.90;;;;;;4409740;32;20225;-66
2021/11/11 06:14:15;;;;;;;1.12;0.95;;;2.20;99.90;;;;;;4414731;32;20066;-66
2021/11/11 06:16:42;;;;;;;0.57;0.57;;;2.30;99.90;;;;;;4410957;32;20070;-66
2021/11/11 06:19:09;;;;;;;0.82;0.82;;;2.30;99.90;;;;;;4400036;32;20129;-67
2021/11/11 06:21:37;;;;;;;2.75;2.30;;;2.10;99.90;;;;;;4424177;32;20070;-68
2021/11/11 06:24:03;;;;;;;1.40;1.30;;;2.00;99.90;;;;;;4416597;32;20057;-67
2021/11/11 06:26:29;;;;;;;0.77;0.77;;;2.00;99.90;;;;;;4400468;32;20556;-67
2021/11/11 06:28:55;;;;;;;1.20;1.10;;;2.10;99.90;;;;;;4389091;32;20141;-67
2021/11/11 06:31:21;;;;;;;1.05;1.05;;;2.10;99.90;;;;;;4374597;32;21251;-67
2021/11/11 06:33:49;;;;;;;1.55;0.98;;;2.10;99.90;;;;;;4379511;32;20093;-67
2021/11/11 06:36:15;;;;;;;1.92;1.30;;;2.10;99.90;;;;;;4399460;32;20090;-67
2021/11/11 06:38:44;;;;;;;1.25;1.15;;;2.20;99.90;;;;;;4403841;32;20081;-67
2021/11/11 06:41:11;;;;;;;0.90;0.90;;;2.10;99.90;;;;;;4403790;32;20089;-67
2021/11/11 06:43:37;;;;;;;0.88;0.88;;;2.10;99.90;;;;;;4379235;32;20499;-67
2021/11/11 06:46:04;;;;;;;11.68;1.75;;;2.20;99.90;;;;;;4394990;32;20074;-67
2021/11/11 06:48:30;;;;;;;1.65;1.55;;;2.40;99.90;;;;;;4394654;32;20172;-67
2021/11/11 06:50:56;;;;;;;1.73;1.35;;;2.40;99.90;;;;;;4395737;32;20897;-67
2021/11/11 06:53:21;;;;;;;0.70;0.70;;;2.30;99.90;;;;;;4396338;32;20097;-67
2021/11/11 06:55:48;;;;;;;1.17;1.10;;;2.40;99.90;;;;;;4396807;32;20077;-67
2021/11/11 06:58:17;;;;;;;1.15;1.08;;;2.40;99.90;;;;;;4399099;32;20515;-67
2021/11/11 07:00:44;;;;;;;8.85;2.17;;;2.30;99.90;;;;;;4392593;32;20090;-67
2021/11/11 07:03:10;;;;;;;1.87;1.58;;;2.30;99.90;;;;;;4394876;32;20073;-67
2021/11/11 07:05:35;;;;;;;3.65;2.17;;;2.40;99.90;;;;;;4390953;32;20496;-67
2021/11/11 07:08:02;;;;;;;0.70;0.70;;;2.40;99.90;;;;;;4401182;32;20085;-67
2021/11/11 07:10:28;;;;;;;3.20;1.23;;;2.30;99.90;;;;;;4400723;32;20109;-67
2021/11/11 07:12:53;;;;;;;3.30;1.65;;;2.30;99.90;;;;;;4404739;32;20461;-67
2021/11/11 07:15:19;;;;;;;1.12;1.02;;;2.40;99.90;;;;;;4395401;32;20396;-67
2021/11/11 07:17:45;;;;;;;1.17;1.17;;;2.50;99.90;;;;;;4396446;32;20069;-67
2021/11/11 07:20:15;;;;;;;1.50;1.02;;;2.60;99.90;;;;;;4391069;32;20346;-67
2021/11/11 07:22:43;;;;;;;0.90;0.80;;;2.60;99.90;;;;;;4397844;32;20245;-67
2021/11/11 07:25:09;;;;;;;2.72;1.62;;;2.60;99.90;;;;;;4382404;32;20106;-67
2021/11/11 07:27:35;;;;;;;1.65;1.02;;;2.70;99.90;;;;;;4388927;32;20661;-67
2021/11/11 07:30:04;;;;;;;0.88;0.88;;;2.70;99.90;;;;;;4387643;32;20094;-67
2021/11/11 07:32:30;;;;;;;2.92;1.52;;;2.80;99.90;;;;;;4389994;32;20507;-67
2021/11/11 07:34:55;;;;;;;0.88;0.88;;;3.10;99.90;;;;;;4391933;32;20077;-66
2021/11/11 07:37:21;;;;;;;3.65;1.87;;;2.90;99.90;;;;;;4397166;32;20081;-67
2021/11/11 07:39:46;;;;;;;0.73;0.73;;;3.10;99.90;;;;;;4396344;32;20085;-67
2021/11/11 07:42:12;;;;;;;2.35;1.90;;;3.10;99.90;;;;;;4395356;32;20535;-67
2021/11/11 07:44:37;;;;;;;1.95;1.67;;;3.20;99.90;;;;;;4397687;32;20121;-67
2021/11/11 07:47:03;;;;;;;0.70;0.70;;;3.30;99.90;;;;;;4394681;32;20291;-67
2021/11/11 07:49:29;;;;;;;0.93;0.93;;;3.30;99.90;;;;;;4390435;32;20077;-67
2021/11/11 07:51:55;;;;;;;0.93;0.93;;;3.30;99.90;;;;;;4382254;32;20107;-66
2021/11/11 07:54:20;;;;;;;1.75;0.98;;;3.30;99.90;;;;;;4397158;32;20432;-66
2021/11/11 07:56:45;;;;;;;1.10;1.02;;;3.40;99.90;;;;;;4396052;32;20158;-66
2021/11/11 07:59:13;;;;;;;1.52;1.00;;;3.40;99.90;;;;;;4388246;32;20078;-65
2021/11/11 08:01:38;;;;;;;0.35;0.35;;;3.40;99.90;;;;;;4399342;32;20069;-66
2021/11/11 08:04:04;;;;;;;0.95;0.95;;;3.40;99.90;;;;;;4397183;32;20078;-67
2021/11/11 08:06:29;;;;;;;5.80;2.40;;;3.40;99.90;;;;;;4390442;32;20137;-66
2021/11/11 08:08:55;;;;;;;0.60;0.60;;;3.50;99.90;;;;;;4399807;32;20081;-66
2021/11/11 08:11:21;;;;;;;1.70;1.05;;;3.60;99.90;;;;;;4396302;32;20136;-66
2021/11/11 08:13:49;;;;;;;0.57;0.57;;;3.70;99.90;;;;;;4395352;32;20089;-67
2021/11/11 08:16:14;;;;;;;0.57;0.57;;;3.80;99.90;;;;;;4394713;32;20121;-67
2021/11/11 08:18:40;;;;;;;0.55;0.55;;;3.70;99.90;;;;;;4393895;32;20082;-67
2021/11/11 08:21:06;;;;;;;0.68;0.68;;;3.60;99.90;;;;;;4397101;32;20085;-67
2021/11/11 08:23:31;;;;;;;0.95;0.75;;;3.70;99.90;;;;;;4395549;32;20084;-67
2021/11/11 08:26:03;;;;;;;1.02;1.00;;;3.80;99.90;;;;;;4394722;32;20469;-67
2021/11/11 08:28:29;;;;;;;1.75;1.15;;;4.00;99.90;;;;;;4391869;32;20126;-66
2021/11/11 08:30:54;;;;;;;0.55;0.55;;;4.20;99.90;;;;;;4395363;32;20858;-67
2021/11/11 08:33:20;;;;;;;23.40;1.83;;;4.40;99.90;;;;;;4396434;32;20126;-67
2021/11/11 08:35:47;;;;;;;1.45;1.15;;;4.50;99.90;;;;;;4396282;32;20077;-68
2021/11/11 08:38:13;;;;;;;1.37;1.27;;;4.60;99.90;;;;;;4394388;32;20597;-67
2021/11/11 08:40:41;;;;;;;1.10;1.08;;;4.80;99.90;;;;;;4397665;32;20488;-66
2021/11/11 08:43:06;;;;;;;0.47;0.47;;;5.00;99.90;;;;;;4386059;32;20162;-66
2021/11/11 08:45:32;;;;;;;0.73;0.73;;;5.20;99.90;;;;;;4395548;32;20074;-68
2021/11/11 08:48:01;;;;;;;1.33;1.25;;;5.30;99.90;;;;;;4390675;32;20230;-67
2021/11/11 08:50:30;;;;;;;1.55;0.98;;;5.10;99.90;;;;;;4397174;32;20090;-67
2021/11/11 08:52:57;;;;;;;0.98;0.95;;;5.30;99.90;;;;;;4395242;32;20551;-67
2021/11/11 08:55:25;;;;;;;1.20;1.10;;;5.40;99.90;;;;;;4398513;32;21807;-67
2021/11/11 08:57:52;;;;;;;5.40;1.08;;;5.60;99.90;;;;;;4403954;32;20094;-67
2021/11/11 09:00:21;;;;;;;3.30;1.15;;;5.70;99.90;;;;;;4398307;32;20081;-66
2021/11/11 09:02:49;;;;;;;3.55;1.95;;;5.80;99.90;;;;;;4383468;32;20635;-67
2021/11/11 09:05:16;;;;;;;3.92;1.48;;;5.80;99.90;;;;;;4386971;32;20121;-67
2021/11/11 09:07:43;;;;;;;3.33;1.55;;;6.00;99.90;;;;;;4398063;32;20468;-67
2021/11/11 09:10:10;;;;;;;1.48;1.23;;;6.10;99.90;;;;;;4408091;32;20154;-67
2021/11/11 09:12:37;;;;;;;1.00;0.95;;;6.20;99.90;;;;;;4404787;32;20082;-67
2021/11/11 09:15:05;;;;;;;0.75;0.70;;;6.20;99.90;;;;;;4400025;32;20078;-68
2021/11/11 09:17:31;;;;;;;3.08;1.30;;;6.40;99.90;;;;;;4396723;32;20094;-67
2021/11/11 09:19:57;;;;;;;34.15;1.65;;;6.60;99.90;;;;;;4383845;32;20150;-68
2021/11/11 09:22:23;;;;;;;2.08;1.20;;;6.70;99.90;;;;;;4399636;32;20089;-68
2021/11/11 09:24:49;;;;;;;0.80;0.80;;;6.60;99.90;;;;;;4399985;32;20093;-68
2021/11/11 09:27:14;;;;;;;1.20;1.15;;;6.70;99.90;;;;;;4403226;32;20144;-68
2021/11/11 09:29:40;;;;;;;1.37;1.17;;;6.80;99.90;;;;;;4395210;32;20061;-68
2021/11/11 09:32:06;;;;;;;1.52;1.10;;;6.90;99.90;;;;;;4404942;32;20078;-71
2021/11/11 09:34:31;;;;;;;1.05;0.90;;;7.00;99.90;;;;;;4398516;32;20110;-68
2021/11/11 09:36:57;;;;;;;3.30;1.35;;;7.00;99.90;;;;;;4399653;32;20113;-70
2021/11/11 09:39:22;;;;;;;1.55;1.15;;;7.10;99.90;;;;;;4401451;32;20066;-69
2021/11/11 09:41:49;;;;;;;1.50;1.12;;;7.20;99.90;;;;;;4405484;32;20075;-68
2021/11/11 09:44:15;;;;;;;2.22;1.00;;;7.30;99.90;;;;;;4406874;32;20065;-68
2021/11/11 09:46:40;;;;;;;0.82;0.82;;;7.40;99.90;;;;;;4405136;32;20172;-66
2021/11/11 09:49:06;;;;;;;1.62;0.90;;;7.50;99.90;;;;;;4406157;32;20204;-65
2021/11/11 09:51:32;;;;;;;2.08;1.12;;;7.50;99.90;;;;;;4414920;32;20070;-63
2021/11/11 09:54:04;;;;;;;29.67;2.05;;;7.60;99.90;;;;;;4405730;32;20523;-66
2021/11/11 09:58:35;;;;;;;1.27;1.05;;;7.70;99.90;;;;;;4404867;32;20085;-66
2021/11/11 09:59:16;;;;;;;2.72;0.80;;;7.70;99.90;;;;;;4384144;32;20144;-66
2021/11/11 10:01:45;;;;;;;2.37;1.40;;;7.60;99.90;;;;;;4398859;32;20090;-66
2021/11/11 10:04:12;;;;;;;0.88;0.88;;;7.70;99.90;;;;;;4396550;32;20078;-66
2021/11/11 10:06:39;;;;;;;1.85;1.12;;;7.80;99.90;;;;;;4385020;32;21031;-66
2021/11/11 10:09:16;;;;;;;2.20;1.48;;;7.90;99.90;;;;;;4397781;32;20150;-65
2021/11/11 10:11:52;;;;;;;1.10;1.00;;;7.90;99.90;;;;;;4400432;32;21296;-66
2021/11/11 10:14:30;;;;;;;2.30;0.98;;;7.90;99.90;;;;;;4389086;32;20070;-66
2021/11/11 10:16:59;;;;;;;0.73;0.73;;;8.00;99.90;;;;;;4402289;32;20161;-66
2021/11/11 10:19:26;;;;;;;1.48;1.12;;;8.00;99.90;;;;;;4395254;32;20160;-66
2021/11/11 10:21:58;;;;;;;2.58;2.05;;;8.00;99.90;;;;;;4390511;32;20081;-66
2021/11/11 10:24:28;;;;;;;4.20;2.10;;;8.20;99.90;;;;;;4390610;32;20724;-68
2021/11/11 10:27:24;;;;;;;8.48;1.83;;;8.40;99.90;;;;;;4387630;32;20090;-67
2021/11/11 10:29:53;;;;;;;1.65;1.02;;;8.50;99.90;;;;;;4388597;32;20442;-67
2021/11/11 10:32:37;;;;;;;1.98;0.93;;;8.50;99.90;;;;;;4388491;32;20105;-67
2021/11/11 10:35:06;;;;;;;3.92;2.08;;;8.60;99.90;;;;;;4397044;32;20085;-67
2021/11/11 10:37:35;;;;;;;4.70;1.17;;;8.50;99.90;;;;;;4374590;32;20073;-66
2021/11/11 10:40:24;;;;;;;2.47;1.33;;;8.60;99.90;;;;;;4398112;32;20124;-66
2021/11/11 10:42:54;;;;;;;0.88;0.88;;;8.90;99.90;;;;;;4378910;32;20520;-66
2021/11/11 10:45:31;;;;;;;1.17;1.08;;;9.10;99.90;;;;;;4377920;32;20061;-67
2021/11/11 10:48:01;;;;;;;1.98;1.33;;;9.20;99.90;;;;;;4398337;32;20070;-67
2021/11/11 10:50:31;;;;;;;0.45;0.45;;;9.30;99.90;;;;;;4394900;32;20066;-67
2021/11/11 10:53:00;;;;;;;2.55;1.00;;;9.50;99.90;;;;;;4393106;32;20163;-67
2021/11/11 10:55:33;;;;;;;1.95;1.17;;;9.50;99.90;;;;;;4380372;32;20473;-65
2021/11/11 10:58:02;;;;;;;1.08;1.02;;;9.50;99.90;;;;;;4398124;32;20110;-67
2021/11/11 11:00:33;;;;;;;2.62;1.83;;;9.20;99.90;;;;;;4380712;32;20108;-66
2021/11/11 11:03:03;;;;;;;1.20;1.12;;;9.30;99.90;;;;;;4391949;32;20209;-67
2021/11/11 11:05:34;;;;;;;3.83;1.20;;;9.60;99.90;;;;;;4393427;32;20159;-67
2021/11/11 11:08:05;;;;;;;9.77;2.00;;;10.00;99.90;;;;;;4398800;32;20489;-66
2021/11/11 11:10:32;;;;;;;2.03;1.83;;;10.20;99.90;;;;;;4398786;32;20069;-66
2021/11/11 11:13:03;;;;;;;4.05;1.67;;;10.50;99.90;;;;;;4397881;32;21806;-67
2021/11/11 11:15:36;;;;;;;3.10;1.48;;;10.70;99.90;;;;;;4394719;32;20476;-67
2021/11/11 11:18:02;;;;;;;5.30;1.52;;;10.80;99.90;;;;;;4385806;32;20078;-67
2021/11/11 11:20:28;;;;;;;1.87;1.30;;;11.00;99.90;;;;;;4390414;32;20400;-67
2021/11/11 11:23:15;;;;;;;2.67;1.33;;;10.90;99.90;;;;;;4383415;32;20074;-67
2021/11/11 11:25:53;;;;;;;3.08;1.00;;;11.10;99.90;;;;;;4378495;32;20165;-67
2021/11/11 11:28:25;;;;;;;3.42;0.90;;;11.20;99.90;;;;;;4387074;32;20151;-67
2021/11/11 11:30:52;;;;;;;3.65;1.77;;;11.20;99.90;;;;;;4389357;32;20081;-67
2021/11/11 11:33:30;;;;;;;5.10;3.00;;;11.30;99.90;;;;;;4393542;32;20098;-66
2021/11/11 11:35:59;;;;;;;5.32;2.75;;;11.40;99.90;;;;;;4391455;32;20169;-66
2021/11/11 11:38:27;;;;;;;1.40;0.85;;;11.70;99.90;;;;;;4375703;32;20602;-67
2021/11/11 11:40:53;;;;;;;1.75;1.40;;;11.60;99.90;;;;;;4391787;32;20085;-67
2021/11/11 11:43:29;;;;;;;1.00;0.90;;;11.70;99.90;;;;;;4376775;32;20114;-67
2021/11/11 11:46:12;;;;;;;1.35;1.23;;;11.60;99.90;;;;;;4381124;32;20066;-67
2021/11/11 11:48:38;;;;;;;0.85;0.85;;;11.70;99.90;;;;;;4383843;32;20069;-67
2021/11/11 11:51:07;;;;;;;0.88;0.70;;;12.00;99.90;;;;;;4390481;32;20512;-67
2021/11/11 11:53:39;;;;;;;0.65;0.65;;;12.20;99.90;;;;;;4393959;32;20077;-67
2021/11/11 11:56:12;;;;;;;2.37;0.95;;;12.20;99.90;;;;;;4385444;32;20840;-67
2021/11/11 11:58:43;;;;;;;1.42;1.05;;;12.10;99.90;;;;;;4389863;32;20176;-67
2021/11/11 12:04:18;;;;;;;2.45;1.02;;;12.30;99.90;;;;;;4387883;32;20544;-66
2021/11/11 12:06:39;;;;;;;3.78;1.50;;;12.40;99.90;;;;;;4382744;32;20066;-67
2021/11/11 12:29:13;;;;;;;1.95;1.35;;;12.50;99.90;;;;;;4388320;32;20094;-67
2021/11/11 12:38:57;;;;;;;0.70;0.70;;;11.50;99.90;;;;;;4394669;32;20098;-67
2021/11/11 12:39:45;;;;;;;9.75;1.92;;;11.20;99.90;;;;;;4388612;32;20497;-67
2021/11/11 12:42:18;;;;;;;2.03;1.10;;;11.00;99.90;;;;;;4397754;32;20085;-69
2021/11/11 12:45:04;;;;;;;1.50;1.00;;;10.80;99.90;;;;;;4401966;32;20189;-68
2021/11/11 12:47:34;;;;;;;1.23;1.02;;;10.80;99.90;;;;;;4398794;32;20054;-68
2021/11/11 12:50:29;;;;;;;0.90;0.80;;;10.90;99.90;;;;;;4393855;32;20332;-68
2021/11/11 12:53:17;;;;;;;2.35;1.83;;;11.00;99.90;;;;;;4381755;32;20078;-67
2021/11/11 12:56:07;;;;;;;3.03;1.60;;;11.00;99.90;;;;;;4396310;32;20384;-67
2021/11/11 12:58:43;;;;;;;0.68;0.68;;;11.00;99.90;;;;;;4392992;32;20074;-67
2021/11/11 13:01:16;;;;;;;7.20;1.83;;;11.00;99.90;;;;;;4399970;32;20070;-67
2021/11/11 13:04:03;;;;;;;2.37;0.70;;;10.90;99.90;;;;;;4398113;32;20057;-67
2021/11/11 13:06:50;;;;;;;0.65;0.65;;;10.80;99.90;;;;;;4399506;32;20089;-67
2021/11/11 13:09:20;;;;;;;1.92;1.00;;;10.90;99.90;;;;;;4400234;32;20498;-68
2021/11/11 13:11:48;;;;;;;5.35;1.33;;;11.00;99.90;;;;;;4403734;32;20073;-68
2021/11/11 13:14:22;;;;;;;1.25;1.10;;;11.10;99.90;;;;;;4406538;32;20070;-68
2021/11/11 13:16:57;;;;;;;4.82;1.52;;;11.10;99.90;;;;;;4407785;32;20136;-66
2021/11/11 13:19:45;;;;;;;1.40;1.10;;;11.20;99.90;;;;;;4408550;32;20074;-66
2021/11/11 13:22:27;;;;;;;0.73;0.57;;;11.10;99.90;;;;;;4401023;32;20141;-67
2021/11/11 13:25:13;;;;;;;0.60;0.60;;;10.90;99.90;;;;;;4410207;32;20062;-67
2021/11/11 13:43:33;;;;;;;2.53;1.00;;;10.80;99.90;;;;;;4397868;32;20094;-67
2021/11/11 13:43:53;;;;;;;0.55;0.55;;;10.70;99.90;;;;;;4385273;32;20106;-67
2021/11/11 13:54:01;;;;;;;2.20;0.90;;;10.50;99.90;;;;;;4387401;32;20089;-67
2021/11/11 13:54:24;;;;;;;0.90;0.90;;;10.60;99.90;;;;;;4387196;32;20524;-65
2021/11/11 13:58:59;;;;;;;0.68;0.68;;;10.60;99.90;;;;;;4387570;32;20709;-65
2021/11/11 13:59:44;;;;;;;0.37;0.37;;;10.70;99.90;;;;;;4401930;32;20069;-66